US Open OLR - 15 mi. toss

Station: 15 mile toss - T Race

Distance: 15 Miles

Release: 12-Oct-2021 09:30

Weather Release:    Arrival:

Wind at Release:     Wind at Arrival:

Temp at Release: °    Temp at Arrival: °

Lofts: 18

Birds: 85

Clocked: 82

Good Luck to Everyone!
Drops Pos Breeder Pigeon Name Color Sex Ent Arrival Speed To Win Elg Pd
1 Hollywood Lou Loft - FL 0721-AU21-HOLL BB H 1 2021-10-12 11:59:08.00 80.211 00:00:00 Yes
2 Texas Holiday Derby - TX 1004-AU21-NSL 834 X 356 BC H 1 2021-10-12 11:59:12.00 80.194 00:00:04 Yes
3 Radd - OK 6476-AU21-ARPU 813/2822 TP BB C 1 2021-10-12 12:16:30.00 76.190 00:17:22 Yes
4 R & M Lofts - TX 0348-AU21-WACO BC H 1 2021-10-12 12:26:46.00 73.998 00:27:38 Yes
4 Mirai Loft 2 - TX 1908-AU21-NSL 246/93 BB H 1 2021-10-12 12:26:46.00 73.998 00:27:38 Yes
6 CALIFORNIA ACEPIGEON - CA 33481-AU21-ARPU CAL ACE 481 CHBR H 1 2021-10-12 12:26:50.00 73.984 00:27:42 Yes
7 CALIFORNIA ACEPIGEON - CA 33479-AU21-ARPU CAL ACE 479 DC H 2 2021-10-12 12:26:52.00 73.977 00:27:44 Yes
8 CALIFORNIA ACEPIGEON - CA 33468-AU21-ARPU CAL ACE 468 BC H 3 2021-10-12 12:26:53.00 73.974 00:27:45 Yes
9 Pomona Lofts - MD 105442-AU21-ARPU Palmyra BBPD H 1 2021-10-12 12:26:56.00 73.963 00:27:48 Yes
10 Texas Holiday Derby - TX 1072-AU21-NSL 36701 X 479 BB H 2 2021-10-12 12:26:59.00 73.953 00:27:51 Yes
11 Texas Holiday Derby - TX 1007-AU21-NSL 90737 X 600 BB H 3 2021-10-12 12:27:37.00 73.822 00:28:29 Yes
12 Dennis Godair - OK 9723-AU21-JEDD RC H 1 2021-10-12 12:27:49.00 73.781 00:28:41 Yes
13 Teal Racing L.L.C. - OK 21577-AU21-ADA BBSP C 1 2021-10-12 12:49:19.00 69.599 00:50:11 Yes
14 Dennis Godair - OK 9711-AU21-JEDD BCWF H 2 2021-10-12 13:30:38.00 62.763 01:31:30 Yes
15 R & M Lofts - TX 0347-AU21-WACO BBWF H 2 2021-10-12 14:23:09.00 55.796 02:24:01 Yes
16 Mirai Loft 2 - TX 1384-AU21-NSL 2001/67969 BBSP H 2 2021-10-12 16:49:32.00 42.613 04:50:24 Yes
17 Radd - OK 6458-AU21-ARPU 1451/41250 Sky BC H 2 2021-10-12 16:57:02.00 42.103 04:57:54 Yes
18 Dennis Godair - OK 9710-AU21-JEDD BCWF H 3 2021-10-12 17:47:48.00 38.950 05:48:40 Yes
19 Hollywood Lou Loft - FL 0754-AU21-HOLL BB H 2 2021-10-12 18:59:36.00 35.219 07:00:28 Yes
20 CALIFORNIA ACEPIGEON - CA 33473-AU21-ARPU CAL ACE 473 BC H 4 2021-10-12 19:44:37.00 33.224 07:45:28 Yes
21 Dennis Godair - OK 9712-AU21-JEDD BB H 4 2021-10-18 14:51:02.00 2.888 146:52:0 Yes
22 Donnie Taylor Loft - OK 72047-AU21-ARPU BC H 1 2021-10-18 14:54:41.00 2.887 146:55:1 Yes
22 Hollywood Lou Loft - FL 0775-AU21-HOLL BB H 3 2021-10-18 14:54:42.00 2.887 146:55:1 Yes
22 Radd - OK 6463-AU21-ARPU 2855/41208 To BB H 3 2021-10-18 14:55:29.00 2.887 146:55:1 Yes
25 CALIFORNIA ACEPIGEON - CA 33474-AU21-ARPU CAL ACE 474 BC H 5 2021-10-18 15:00:12.00 2.885 147:01:3 Yes
25 CALIFORNIA ACEPIGEON - CA 33480-AU21-ARPU CAL ACE 480 BCWF H 6 2021-10-18 15:00:19.00 2.885 147:01:3 Yes
25 Texas Holiday Derby - TX 1057-AU21-NSL 11303 X 1045 BC H 4 2021-10-18 15:00:19.00 2.885 147:01:3 Yes
25 Radd - OK 6486-AU21-ARPU 2087/41232 BA BB H 4 2021-10-18 15:00:24.00 2.885 147:01:3 Yes
25 Dennis Godair - OK 9720-AU21-JEDD BB H 6 2021-10-18 15:00:30.00 2.885 147:01:3 Yes
25 CALIFORNIA ACEPIGEON - CA 33484-AU21-ARPU CAL ACE 484 CHBR H 7 2021-10-18 15:00:30.00 2.885 147:01:3 Yes
25 Mammothlofts - TX 0902-AU21-XFIL RC H 1 2021-10-18 15:00:32.00 2.885 147:01:3 Yes
25 Teal Racing L.L.C. - OK 21601-AU21-ADA GRIZ H 2 2021-10-18 15:00:34.00 2.885 147:01:3 Yes
25 Dennis Godair - OK 9702-AU21-JEDD BC H 5 2021-10-18 15:00:45.00 2.885 147:01:3 Yes
25 Bruno - UT 27407-AU21-FOYS BC H 1 2021-10-18 15:01:26.00 2.885 147:01:3 Yes
25 CALIFORNIA ACEPIGEON - CA 33485-AU21-ARPU CAL ACE 485 CHBR H 8 2021-10-18 15:01:34.00 2.885 147:01:3 Yes
25 Bruno - UT 27406-AU21-FOYS BBSP H 2 2021-10-18 15:01:34.00 2.885 147:01:3 Yes
37 Lucky 17 - OK 19164-AU21-ARPU BB H 1 2021-10-18 15:16:01.00 2.880 147:17:3 Yes
37 Mirai Loft 2 - TX 1379-AU21-NSL 8245/1566 BC H 3 2021-10-18 15:16:03.00 2.880 147:17:3 Yes
37 CALIFORNIA ACEPIGEON - CA 33492-AU21-ARPU CAL ACE 492 BBPD H 10 2021-10-18 15:16:22.00 2.880 147:17:3 Yes
37 CALIFORNIA ACEPIGEON - CA 33475-AU21-ARPU CAL ACE 475 BC H 9 2021-10-18 15:16:26.00 2.880 147:17:3 Yes
37 Radd - OK 6460-AU21-ARPU 14614/14684 CC RED H 5 2021-10-18 15:16:27.00 2.880 147:17:3 Yes
37 Texas Holiday Derby - TX 1001-AU21-NSL 73 X 26296 BB H 5 2021-10-18 15:16:27.00 2.880 147:17:3 Yes
43 Radd - OK 6491-AU21-ARPU 2350/ 41032 Na BB H 6 2021-10-18 15:28:31.00 2.876 147:30:1 Yes
44 Radd - OK 6468-AU21-ARPU 2350/ 41032 Na BB H 7 2021-10-18 15:32:05.00 2.875 147:33:2 Yes
44 Ozark Loft - MO 88906-AU21-ARPU BC H 1 2021-10-18 15:32:15.00 2.875 147:33:2 Yes
44 CALIFORNIA ACEPIGEON - CA 33478-AU21-ARPU CAL ACE 478 DC H 12 2021-10-18 15:32:17.00 2.875 147:33:2 Yes
44 Ozark Loft - MO 88908-AU21-ARPU BCWF H 2 2021-10-18 15:32:17.00 2.875 147:33:2 Yes
44 Hollywood Lou Loft - FL 0726-AU21-HOLL BC H 4 2021-10-18 15:32:18.00 2.875 147:33:2 Yes
44 CALIFORNIA ACEPIGEON - CA 33482-AU21-ARPU CAL ACE 482 CHOC H 11 2021-10-18 15:32:20.00 2.875 147:33:2 Yes
44 Mirai Loft 2 - TX 1945-AU21-NSL 246/93 BB H 4 2021-10-18 15:32:25.00 2.875 147:33:2 Yes
51 Mammothlofts - TX 0901-AU21-XFIL RC H 2 2021-10-18 16:05:35.00 2.865 148:05:3 Yes
51 CALIFORNIA ACEPIGEON - CA 33472-AU21-ARPU CAL ACE 472 BC H 13 2021-10-18 16:05:46.00 2.865 148:05:3 Yes
53 Radd - OK 6457-AU21-ARPU 2087/41232 BA BB H 8 2021-10-18 16:31:26.00 2.857 148:31:2 Yes
54 Dennis Godair - OK 9714-AU21-JEDD SLAT H 7 2021-10-18 16:34:24.00 2.856 148:34:3 Yes
54 Ozark Loft - MO 88904-AU21-ARPU BBSP H 3 2021-10-18 16:34:25.00 2.856 148:34:3 Yes
54 Hollywood Lou Loft - FL 0739-AU21-HOLL BB H 5 2021-10-18 16:34:26.00 2.856 148:34:3 Yes
54 Radd - OK 6448-AU21-ARPU 2185/2528 Wo RCPD H 9 2021-10-18 16:34:28.00 2.856 148:34:3 Yes
58 Teal Racing L.L.C. - OK 21596-AU21-ADA GRIZ H 4 2021-10-18 16:41:18.00 2.854 148:41:0 Yes
58 CALIFORNIA ACEPIGEON - CA 33488-AU21-ARPU CAL ACE 488 BC H 15 2021-10-18 16:41:22.00 2.854 148:41:0 Yes
58 Dennis Godair - OK 9716-AU21-JEDD BC H 8 2021-10-18 16:41:24.00 2.854 148:41:0 Yes
58 CALIFORNIA ACEPIGEON - CA 33477-AU21-ARPU CAL ACE 477 BB H 14 2021-10-18 16:41:26.00 2.854 148:41:0 Yes
58 Teal Racing L.L.C. - OK 21597-AU21-ADA BB H 3 2021-10-18 16:41:28.00 2.854 148:41:0 Yes
58 Derrow Loft - WV 4473-AU21-VITA "Derrick" BB H 1 2021-10-18 16:41:28.00 2.854 148:41:0 Yes
58 Radd - OK 6489-AU21-ARPU 2855/41208 To BB H 10 2021-10-18 16:41:29.00 2.854 148:41:0 Yes
65 Mirai Loft 2 - TX 1909-AU21-NSL 246/93 BC H 5 2021-10-18 16:50:10.00 2.851 148:50:4 Yes
65 Derrow Loft - WV 4481-AU21-VITA "Dewey" BB H 2 2021-10-18 16:50:14.00 2.851 148:50:4 Yes
65 CALIFORNIA ACEPIGEON - CA 33486-AU21-ARPU CAL ACE 486 BC H 16 2021-10-18 16:50:39.00 2.851 148:50:4 Yes
65 Farmer Loft - IL 2311-AU21-VITA BB H 1 2021-10-18 16:51:18.00 2.851 148:50:4 Yes
69 Hawkeye Loft 2 - OH 1242-AU21-COV "Free Born" BCPD H 1 2021-10-18 16:51:51.00 2.850 148:54:0 Yes
69 Bruno - UT 27403-AU21-FOYS BC H 3 2021-10-18 16:52:19.00 2.850 148:54:0 Yes
71 CALIFORNIA ACEPIGEON - CA 33469-AU21-ARPU CAL ACE 469 BB H 17 2021-10-18 16:56:19.00 2.849 148:57:1 Yes
72 Texas Holiday Derby - TX 1051-AU21-NSL 7296 X 140 BB H 6 2021-10-18 17:20:36.00 2.842 149:20:0 Yes
73 Radd - OK 6467-AU21-ARPU 2350/ 41032 Na BB H 12 2021-10-18 17:24:46.00 2.840 149:26:3 Yes
73 Mirai Loft 2 - TX 1912-AU21-NSL 324/13482 BB H 6 2021-10-18 17:24:51.00 2.840 149:26:3 Yes
73 Dennis Godair - OK 9706-AU21-JEDD SLAT H 10 2021-10-18 17:24:52.00 2.840 149:26:3 Yes
73 Dennis Godair - OK 9718-AU21-JEDD DC H 9 2021-10-18 17:24:53.00 2.840 149:26:3 Yes
73 Mammothlofts - TX 0001-AU21-WW BBPD H 3 2021-10-18 17:25:42.00 2.840 149:26:3 Yes
73 Hawkeye Loft 2 - OH 1248-AU21-COV "Tik Toc" BCWF H 2 2021-10-18 17:25:52.00 2.840 149:26:3 Yes
73 Radd - OK 6472-AU21-ARPU 1148/41050 BP BB H 11 2021-10-18 17:26:04.00 2.840 149:26:3 Yes
73 Hollywood Lou Loft - FL 0697-AU21-HOLL BC H 6 2021-10-18 17:26:50.00 2.840 149:26:3 Yes
81 Dennis Godair - OK 9717-AU21-JEDD BC H 11 2021-10-18 17:57:14.00 2.830 149:59:2 Yes
82 Hollywood Lou Loft - FL 0687-AU21-HOLL BB H 7 2021-10-18 18:21:14.00 2.823 150:22:3 Yes

There are 82 bird records

Note: These Race Results are unofficial and subject to change until verified by the Race Committee and declared final.

 

windy